sensor_id;sensor_type;location;lat;lon;timestamp;pressure;altitude;pressure_sealevel;temperature;humidity
7768;BME280;3928;42.626;23.382;2023-05-09T00:02:03;94447.59;;;16.88;77.89
7768;BME280;3928;42.626;23.382;2023-05-09T00:04:30;94453.19;;;16.77;77.66
7768;BME280;3928;42.626;23.382;2023-05-09T00:06:58;94451.00;;;16.88;76.91
7768;BME280;3928;42.626;23.382;2023-05-09T00:09:25;94435.53;;;16.87;76.22
7768;BME280;3928;42.626;23.382;2023-05-09T00:11:53;94447.16;;;16.99;76.12
7768;BME280;3928;42.626;23.382;2023-05-09T00:14:20;94413.03;;;16.87;75.79
7768;BME280;3928;42.626;23.382;2023-05-09T00:16:49;94449.28;;;17.11;75.63
7768;BME280;3928;42.626;23.382;2023-05-09T00:19:16;94446.88;;;17.06;75.43
7768;BME280;3928;42.626;23.382;2023-05-09T00:21:42;94453.97;;;17.01;75.43
7768;BME280;3928;42.626;23.382;2023-05-09T00:24:09;94440.16;;;17.01;74.78
7768;BME280;3928;42.626;23.382;2023-05-09T00:26:36;94445.84;;;17.10;75.12
7768;BME280;3928;42.626;23.382;2023-05-09T00:29:04;94442.09;;;17.17;74.98
7768;BME280;3928;42.626;23.382;2023-05-09T00:31:31;94438.78;;;17.14;74.19
7768;BME280;3928;42.626;23.382;2023-05-09T00:33:58;94433.06;;;17.06;74.49
7768;BME280;3928;42.626;23.382;2023-05-09T00:36:25;94438.78;;;17.14;74.37
7768;BME280;3928;42.626;23.382;2023-05-09T00:38:51;94425.81;;;17.14;74.17
7768;BME280;3928;42.626;23.382;2023-05-09T00:41:18;94430.69;;;17.21;73.93
7768;BME280;3928;42.626;23.382;2023-05-09T00:43:45;94424.53;;;17.24;73.58
7768;BME280;3928;42.626;23.382;2023-05-09T00:46:14;94428.59;;;17.31;73.87
7768;BME280;3928;42.626;23.382;2023-05-09T00:48:40;94437.13;;;17.33;73.56
7768;BME280;3928;42.626;23.382;2023-05-09T00:51:07;94441.84;;;17.23;73.66
7768;BME280;3928;42.626;23.382;2023-05-09T00:53:34;94448.00;;;17.21;73.90
7768;BME280;3928;42.626;23.382;2023-05-09T00:56:02;94417.38;;;17.09;73.69
7768;BME280;3928;42.626;23.382;2023-05-09T00:58:29;94442.56;;;17.27;73.80
7768;BME280;3928;42.626;23.382;2023-05-09T01:00:56;94445.00;;;17.32;73.94
7768;BME280;3928;42.626;23.382;2023-05-09T01:03:25;94442.19;;;17.36;73.89
7768;BME280;3928;42.626;23.382;2023-05-09T01:05:54;94445.47;;;17.41;73.64
7768;BME280;3928;42.626;23.382;2023-05-09T01:08:33;94451.38;;;17.45;73.66
7768;BME280;3928;42.626;23.382;2023-05-09T01:11:09;94448.56;;;17.49;73.05
7768;BME280;3928;42.626;23.382;2023-05-09T01:13:43;94444.16;;;17.51;72.85
7768;BME280;3928;42.626;23.382;2023-05-09T01:16:19;94431.59;;;17.42;73.13
7768;BME280;3928;42.626;23.382;2023-05-09T01:18:55;94443.38;;;17.49;73.13
7768;BME280;3928;42.626;23.382;2023-05-09T01:21:27;94412.19;;;17.31;73.15
7768;BME280;3928;42.626;23.382;2023-05-09T01:24:27;94438.19;;;17.49;73.34
7768;BME280;3928;42.626;23.382;2023-05-09T01:27:19;94423.81;;;17.42;73.36
7768;BME280;3928;42.626;23.382;2023-05-09T01:29:50;94411.75;;;17.41;72.91
7768;BME280;3928;42.626;23.382;2023-05-09T01:32:23;94445.47;;;17.62;72.49
7768;BME280;3928;42.626;23.382;2023-05-09T01:34:51;94446.25;;;17.64;72.67
7768;BME280;3928;42.626;23.382;2023-05-09T01:37:26;94434.44;;;17.57;72.07
7768;BME280;3928;42.626;23.382;2023-05-09T01:39:57;94447.59;;;17.52;72.57
7768;BME280;3928;42.626;23.382;2023-05-09T01:42:28;94444.97;;;17.53;72.47
7768;BME280;3928;42.626;23.382;2023-05-09T01:44:58;94439.16;;;17.47;72.55
7768;BME280;3928;42.626;23.382;2023-05-09T01:47:26;94436.50;;;17.48;72.19
7768;BME280;3928;42.626;23.382;2023-05-09T01:49:54;94440.28;;;17.41;72.59
7768;BME280;3928;42.626;23.382;2023-05-09T01:52:22;94444.94;;;17.33;72.89
7768;BME280;3928;42.626;23.382;2023-05-09T01:54:50;94363.97;;;16.83;73.46
7768;BME280;3928;42.626;23.382;2023-05-09T01:57:17;94447.66;;;17.30;73.41
7768;BME280;3928;42.626;23.382;2023-05-09T01:59:46;94446.53;;;17.36;73.79
7768;BME280;3928;42.626;23.382;2023-05-09T02:02:15;94445.56;;;17.38;73.75
7768;BME280;3928;42.626;23.382;2023-05-09T02:04:43;94405.25;;;17.09;73.77
7768;BME280;3928;42.626;23.382;2023-05-09T02:07:11;94444.78;;;16.94;75.45
7768;BME280;3928;42.626;23.382;2023-05-09T02:09:38;94447.66;;;16.86;76.00
7768;BME280;3928;42.626;23.382;2023-05-09T02:12:05;94443.66;;;16.78;76.22
7768;BME280;3928;42.626;23.382;2023-05-09T02:14:32;94438.19;;;16.62;77.16
7768;BME280;3928;42.626;23.382;2023-05-09T02:16:59;94436.22;;;16.45;78.48
7768;BME280;3928;42.626;23.382;2023-05-09T02:19:32;94441.44;;;16.20;79.18
7768;BME280;3928;42.626;23.382;2023-05-09T02:21:59;94438.38;;;16.34;78.88
7768;BME280;3928;42.626;23.382;2023-05-09T02:24:26;94433.69;;;16.44;78.84
7768;BME280;3928;42.626;23.382;2023-05-09T02:26:53;94435.50;;;16.42;78.20
7768;BME280;3928;42.626;23.382;2023-05-09T02:29:24;94431.31;;;16.61;77.48
7768;BME280;3928;42.626;23.382;2023-05-09T02:31:53;94361.88;;;16.25;76.98
7768;BME280;3928;42.626;23.382;2023-05-09T02:34:20;94442.47;;;16.86;76.91
7768;BME280;3928;42.626;23.382;2023-05-09T02:36:49;94431.06;;;16.90;76.51
7768;BME280;3928;42.626;23.382;2023-05-09T02:39:15;94432.31;;;17.02;75.72
7768;BME280;3928;42.626;23.382;2023-05-09T02:41:47;94433.59;;;17.14;75.08
7768;BME280;3928;42.626;23.382;2023-05-09T02:44:13;94439.31;;;17.22;74.62
7768;BME280;3928;42.626;23.382;2023-05-09T02:46:40;94435.69;;;17.26;74.21
7768;BME280;3928;42.626;23.382;2023-05-09T02:49:07;94441.47;;;17.33;74.05
7768;BME280;3928;42.626;23.382;2023-05-09T02:51:34;94441.47;;;17.33;75.11
7768;BME280;3928;42.626;23.382;2023-05-09T02:54:02;94442.47;;;17.30;76.01
7768;BME280;3928;42.626;23.382;2023-05-09T02:56:29;94443.47;;;17.26;76.32
7768;BME280;3928;42.626;23.382;2023-05-09T02:58:56;94441.28;;;17.17;76.81
7768;BME280;3928;42.626;23.382;2023-05-09T03:01:22;94441.72;;;17.05;77.74
7768;BME280;3928;42.626;23.382;2023-05-09T03:03:49;94451.31;;;17.03;77.65
7768;BME280;3928;42.626;23.382;2023-05-09T03:06:16;94438.34;;;17.03;77.65
7768;BME280;3928;42.626;23.382;2023-05-09T03:08:43;94439.44;;;16.97;77.53
7768;BME280;3928;42.626;23.382;2023-05-09T03:11:11;94452.22;;;17.02;77.46
7768;BME280;3928;42.626;23.382;2023-05-09T03:13:38;94452.34;;;16.99;77.68
7768;BME280;3928;42.626;23.382;2023-05-09T03:16:05;94458.63;;;16.93;78.12
7768;BME280;3928;42.626;23.382;2023-05-09T03:18:32;94465.31;;;16.99;77.83
7768;BME280;3928;42.626;23.382;2023-05-09T03:20:59;94464.28;;;17.03;77.52
7768;BME280;3928;42.626;23.382;2023-05-09T03:23:25;94472.63;;;17.11;77.39
7768;BME280;3928;42.626;23.382;2023-05-09T03:25:52;94458.31;;;17.01;76.87
7768;BME280;3928;42.626;23.382;2023-05-09T03:28:20;94475.75;;;17.19;76.90
7768;BME280;3928;42.626;23.382;2023-05-09T03:30:47;94463.94;;;17.12;76.50
7768;BME280;3928;42.626;23.382;2023-05-09T03:33:14;94493.53;;;17.28;76.54
7768;BME280;3928;42.626;23.382;2023-05-09T03:35:40;94491.81;;;17.29;76.59
7768;BME280;3928;42.626;23.382;2023-05-09T03:38:07;94475.28;;;17.09;76.75
7768;BME280;3928;42.626;23.382;2023-05-09T03:40:34;94500.47;;;17.28;76.86
7768;BME280;3928;42.626;23.382;2023-05-09T03:43:01;94496.94;;;17.30;76.78
7768;BME280;3928;42.626;23.382;2023-05-09T03:45:29;94470.03;;;17.11;76.85
7768;BME280;3928;42.626;23.382;2023-05-09T03:47:56;94502.75;;;17.13;77.53
7768;BME280;3928;42.626;23.382;2023-05-09T03:50:23;94500.09;;;17.15;77.51
7768;BME280;3928;42.626;23.382;2023-05-09T03:52:50;94497.34;;;17.19;77.16
7768;BME280;3928;42.626;23.382;2023-05-09T03:55:17;94505.06;;;17.21;77.16
7768;BME280;3928;42.626;23.382;2023-05-09T03:57:43;94495.53;;;17.21;76.72
7768;BME280;3928;42.626;23.382;2023-05-09T04:00:11;94499.63;;;17.27;76.77
7768;BME280;3928;42.626;23.382;2023-05-09T04:02:39;94498.69;;;17.30;77.29
7768;BME280;3928;42.626;23.382;2023-05-09T04:05:07;94487.06;;;17.38;80.50
7768;BME280;3928;42.626;23.382;2023-05-09T04:07:33;94500.94;;;17.59;79.88
7768;BME280;3928;42.626;23.382;2023-05-09T04:10:00;94477.66;;;17.58;78.89
7768;BME280;3928;42.626;23.382;2023-05-09T04:12:27;94508.47;;;17.87;79.70
7768;BME280;3928;42.626;23.382;2023-05-09T04:14:54;94496.16;;;17.92;77.76
7768;BME280;3928;42.626;23.382;2023-05-09T04:17:20;94498.38;;;18.01;80.20
7768;BME280;3928;42.626;23.382;2023-05-09T04:19:49;94497.63;;;18.18;79.52
7768;BME280;3928;42.626;23.382;2023-05-09T04:22:15;94495.94;;;18.37;82.07
7768;BME280;3928;42.626;23.382;2023-05-09T04:24:42;94496.88;;;18.55;75.09
7768;BME280;3928;42.626;23.382;2023-05-09T04:27:09;94485.69;;;18.53;72.03
7768;BME280;3928;42.626;23.382;2023-05-09T04:29:36;94492.91;;;18.67;72.37
7768;BME280;3928;42.626;23.382;2023-05-09T04:32:03;94498.97;;;18.86;76.90
7768;BME280;3928;42.626;23.382;2023-05-09T04:34:30;94499.53;;;19.12;77.42
7768;BME280;3928;42.626;23.382;2023-05-09T04:36:59;94496.44;;;19.40;73.25
7768;BME280;3928;42.626;23.382;2023-05-09T04:39:25;94493.84;;;19.59;72.84
7768;BME280;3928;42.626;23.382;2023-05-09T04:41:52;94503.59;;;19.72;70.75
7768;BME280;3928;42.626;23.382;2023-05-09T04:44:19;94503.22;;;19.80;71.03
7768;BME280;3928;42.626;23.382;2023-05-09T04:46:46;94508.81;;;19.90;67.32
7768;BME280;3928;42.626;23.382;2023-05-09T04:49:14;94505.59;;;19.84;66.25
7768;BME280;3928;42.626;23.382;2023-05-09T04:51:41;94510.78;;;19.67;66.55
7768;BME280;3928;42.626;23.382;2023-05-09T04:54:09;94506.22;;;19.53;67.17
7768;BME280;3928;42.626;23.382;2023-05-09T04:56:36;94509.34;;;19.43;67.33
7768;BME280;3928;42.626;23.382;2023-05-09T04:59:03;94515.69;;;19.18;67.57
7768;BME280;3928;42.626;23.382;2023-05-09T05:01:30;94500.16;;;18.98;67.98
7768;BME280;3928;42.626;23.382;2023-05-09T05:03:56;94508.03;;;18.96;68.88
7768;BME280;3928;42.626;23.382;2023-05-09T05:06:23;94512.16;;;18.82;69.42
7768;BME280;3928;42.626;23.382;2023-05-09T05:08:50;94495.25;;;18.73;70.43
7768;BME280;3928;42.626;23.382;2023-05-09T05:11:18;94501.69;;;18.64;71.03
7768;BME280;3928;42.626;23.382;2023-05-09T05:13:45;94502.72;;;18.60;71.69
7768;BME280;3928;42.626;23.382;2023-05-09T05:16:12;94504.81;;;18.52;71.36
7768;BME280;3928;42.626;23.382;2023-05-09T05:18:39;94484.94;;;18.31;72.45
7768;BME280;3928;42.626;23.382;2023-05-09T05:21:06;94506.44;;;18.34;72.82
7768;BME280;3928;42.626;23.382;2023-05-09T05:23:32;94499.78;;;18.29;72.63
7768;BME280;3928;42.626;23.382;2023-05-09T05:25:59;94479.31;;;18.21;72.39
7768;BME280;3928;42.626;23.382;2023-05-09T05:28:27;94504.91;;;18.30;72.49
7768;BME280;3928;42.626;23.382;2023-05-09T05:30:54;94517.81;;;18.32;72.49
7768;BME280;3928;42.626;23.382;2023-05-09T05:33:21;94513.00;;;18.23;72.88
7768;BME280;3928;42.626;23.382;2023-05-09T05:35:48;94500.31;;;18.17;72.50
7768;BME280;3928;42.626;23.382;2023-05-09T05:38:15;94489.66;;;18.02;71.65
7768;BME280;3928;42.626;23.382;2023-05-09T05:40:42;94515.09;;;17.94;72.14
7768;BME280;3928;42.626;23.382;2023-05-09T05:43:09;94522.19;;;17.91;72.55
7768;BME280;3928;42.626;23.382;2023-05-09T05:45:37;94513.78;;;17.84;73.74
7768;BME280;3928;42.626;23.382;2023-05-09T05:48:04;94514.13;;;17.76;74.47
7768;BME280;3928;42.626;23.382;2023-05-09T05:50:31;94514.97;;;17.77;74.94
7768;BME280;3928;42.626;23.382;2023-05-09T05:52:58;94510.69;;;17.76;74.76
7768;BME280;3928;42.626;23.382;2023-05-09T05:55:25;94520.16;;;17.77;74.27
7768;BME280;3928;42.626;23.382;2023-05-09T05:57:52;94514.22;;;17.73;73.73
7768;BME280;3928;42.626;23.382;2023-05-09T06:00:19;94517.72;;;17.72;73.09
7768;BME280;3928;42.626;23.382;2023-05-09T06:02:48;94524.00;;;17.67;72.41
7768;BME280;3928;42.626;23.382;2023-05-09T06:05:15;94513.00;;;17.60;72.18
7768;BME280;3928;42.626;23.382;2023-05-09T06:07:41;94504.88;;;17.69;72.05
7768;BME280;3928;42.626;23.382;2023-05-09T06:10:09;94510.69;;;17.76;73.86
7768;BME280;3928;42.626;23.382;2023-05-09T06:12:36;94519.53;;;17.92;74.07
7768;BME280;3928;42.626;23.382;2023-05-09T06:15:03;94524.72;;;17.92;72.21
7768;BME280;3928;42.626;23.382;2023-05-09T06:17:30;94508.28;;;17.92;72.06
7768;BME280;3928;42.626;23.382;2023-05-09T06:19:58;94511.19;;;17.84;72.23
7768;BME280;3928;42.626;23.382;2023-05-09T06:22:25;94496.53;;;17.61;73.38
7768;BME280;3928;42.626;23.382;2023-05-09T06:24:52;94505.06;;;17.65;73.13
7768;BME280;3928;42.626;23.382;2023-05-09T06:27:19;94508.66;;;17.61;73.62
7768;BME280;3928;42.626;23.382;2023-05-09T06:29:46;94510.34;;;17.62;72.66
7768;BME280;3928;42.626;23.382;2023-05-09T06:32:12;94510.00;;;17.49;71.94
7768;BME280;3928;42.626;23.382;2023-05-09T06:34:39;94506.56;;;17.48;72.40
7768;BME280;3928;42.626;23.382;2023-05-09T06:37:08;94509.50;;;17.61;73.14
7768;BME280;3928;42.626;23.382;2023-05-09T06:39:34;94507.72;;;17.41;73.95
7768;BME280;3928;42.626;23.382;2023-05-09T06:42:01;94511.25;;;17.61;73.58
7768;BME280;3928;42.626;23.382;2023-05-09T06:44:28;94512.84;;;17.65;72.94
7768;BME280;3928;42.626;23.382;2023-05-09T06:46:55;94496.59;;;17.60;73.16
7768;BME280;3928;42.626;23.382;2023-05-09T06:49:22;94515.47;;;17.85;72.39
7768;BME280;3928;42.626;23.382;2023-05-09T06:51:48;94482.47;;;17.67;71.50
7768;BME280;3928;42.626;23.382;2023-05-09T06:54:17;94517.00;;;17.91;71.63
7768;BME280;3928;42.626;23.382;2023-05-09T06:56:43;94514.59;;;17.64;72.57
7768;BME280;3928;42.626;23.382;2023-05-09T06:59:10;94514.69;;;17.61;72.47
7768;BME280;3928;42.626;23.382;2023-05-09T07:01:38;94510.69;;;17.54;72.66
7768;BME280;3928;42.626;23.382;2023-05-09T07:04:04;94514.00;;;17.36;73.84
7768;BME280;3928;42.626;23.382;2023-05-09T07:06:31;94504.47;;;17.36;74.21
7768;BME280;3928;42.626;23.382;2023-05-09T07:08:58;94498.97;;;17.22;72.25
7768;BME280;3928;42.626;23.382;2023-05-09T07:11:26;94508.31;;;17.26;72.81
7768;BME280;3928;42.626;23.382;2023-05-09T07:13:53;94490.94;;;17.28;72.21
7768;BME280;3928;42.626;23.382;2023-05-09T07:16:20;94503.97;;;17.48;71.54
7768;BME280;3928;42.626;23.382;2023-05-09T07:18:48;94499.94;;;17.41;70.93
7768;BME280;3928;42.626;23.382;2023-05-09T07:21:14;94506.59;;;17.03;70.42
7768;BME280;3928;42.626;23.382;2023-05-09T07:23:41;94515.06;;;17.08;71.55
7768;BME280;3928;42.626;23.382;2023-05-09T07:26:08;94511.03;;;17.23;71.26
7768;BME280;3928;42.626;23.382;2023-05-09T07:28:36;94506.69;;;17.45;71.10
7768;BME280;3928;42.626;23.382;2023-05-09T07:31:03;94445.59;;;17.16;70.27
7768;BME280;3928;42.626;23.382;2023-05-09T07:33:30;94501.31;;;17.72;71.43
7768;BME280;3928;42.626;23.382;2023-05-09T07:35:58;94503.06;;;17.71;68.27
7768;BME280;3928;42.626;23.382;2023-05-09T07:38:24;94511.31;;;17.59;68.36
7768;BME280;3928;42.626;23.382;2023-05-09T07:40:51;94481.31;;;17.10;69.39
7768;BME280;3928;42.626;23.382;2023-05-09T07:43:18;94505.06;;;17.21;69.19
7768;BME280;3928;42.626;23.382;2023-05-09T07:45:46;94516.28;;;17.43;68.59
7768;BME280;3928;42.626;23.382;2023-05-09T07:48:13;94504.75;;;17.07;68.85
7768;BME280;3928;42.626;23.382;2023-05-09T07:50:40;94520.75;;;17.18;68.84
7768;BME280;3928;42.626;23.382;2023-05-09T07:53:07;94491.91;;;17.04;68.97
7768;BME280;3928;42.626;23.382;2023-05-09T07:55:33;94516.88;;;17.06;68.94
7768;BME280;3928;42.626;23.382;2023-05-09T07:58:00;94513.47;;;16.82;68.99
7768;BME280;3928;42.626;23.382;2023-05-09T08:00:27;94511.38;;;17.14;68.50
7768;BME280;3928;42.626;23.382;2023-05-09T08:02:55;94514.63;;;16.97;70.07
7768;BME280;3928;42.626;23.382;2023-05-09T08:05:22;94497.03;;;16.83;72.22
7768;BME280;3928;42.626;23.382;2023-05-09T08:07:49;94510.53;;;16.68;73.86
7768;BME280;3928;42.626;23.382;2023-05-09T08:10:16;94499.75;;;16.55;74.68
7768;BME280;3928;42.626;23.382;2023-05-09T08:12:43;94506.69;;;16.78;74.90
7768;BME280;3928;42.626;23.382;2023-05-09T08:15:10;94512.03;;;16.97;74.55
7768;BME280;3928;42.626;23.382;2023-05-09T08:17:37;94512.28;;;17.13;74.40
7768;BME280;3928;42.626;23.382;2023-05-09T08:20:06;94505.84;;;17.01;72.28
7768;BME280;3928;42.626;23.382;2023-05-09T08:22:33;94511.91;;;17.00;73.04
7768;BME280;3928;42.626;23.382;2023-05-09T08:25:00;94522.31;;;17.22;73.61
7768;BME280;3928;42.626;23.382;2023-05-09T08:27:27;94513.28;;;17.32;73.33
7768;BME280;3928;42.626;23.382;2023-05-09T08:29:53;94502.53;;;17.41;71.47
7768;BME280;3928;42.626;23.382;2023-05-09T08:32:20;94510.78;;;17.51;71.69
7768;BME280;3928;42.626;23.382;2023-05-09T08:34:47;94513.22;;;17.56;72.07
7768;BME280;3928;42.626;23.382;2023-05-09T08:37:15;94504.75;;;17.50;69.93
7768;BME280;3928;42.626;23.382;2023-05-09T08:39:42;94514.38;;;17.70;68.48
7768;BME280;3928;42.626;23.382;2023-05-09T08:42:09;94426.13;;;17.06;67.84
7768;BME280;3928;42.626;23.382;2023-05-09T08:44:36;94502.31;;;17.68;69.28
7768;BME280;3928;42.626;23.382;2023-05-09T08:47:03;94508.94;;;17.76;68.76
7768;BME280;3928;42.626;23.382;2023-05-09T08:49:30;94506.50;;;17.72;68.87
7768;BME280;3928;42.626;23.382;2023-05-09T08:51:57;94497.72;;;17.76;70.37
7768;BME280;3928;42.626;23.382;2023-05-09T08:54:27;94499.81;;;17.87;73.61
7768;BME280;3928;42.626;23.382;2023-05-09T08:56:54;94510.31;;;18.05;69.24
7768;BME280;3928;42.626;23.382;2023-05-09T08:59:22;94502.56;;;18.04;66.78
7768;BME280;3928;42.626;23.382;2023-05-09T09:01:50;94503.13;;;18.10;67.57
7768;BME280;3928;42.626;23.382;2023-05-09T09:04:19;94501.72;;;18.03;68.72
7768;BME280;3928;42.626;23.382;2023-05-09T09:06:46;94510.16;;;18.08;67.56
7768;BME280;3928;42.626;23.382;2023-05-09T09:09:14;94509.25;;;17.89;66.75
7768;BME280;3928;42.626;23.382;2023-05-09T09:11:44;94511.56;;;17.75;68.20
7768;BME280;3928;42.626;23.382;2023-05-09T09:14:14;94498.66;;;17.51;69.04
7768;BME280;3928;42.626;23.382;2023-05-09T09:16:46;94499.53;;;17.30;68.62
7768;BME280;3928;42.626;23.382;2023-05-09T09:19:16;94503.53;;;17.15;70.01
7768;BME280;3928;42.626;23.382;2023-05-09T09:21:44;94509.53;;;17.17;71.13
7768;BME280;3928;42.626;23.382;2023-05-09T09:24:12;94517.13;;;17.22;70.98
7768;BME280;3928;42.626;23.382;2023-05-09T09:26:46;94503.44;;;17.18;70.98
7768;BME280;3928;42.626;23.382;2023-05-09T09:29:14;94510.13;;;17.24;70.20
7768;BME280;3928;42.626;23.382;2023-05-09T09:31:43;94513.88;;;17.17;70.73
7768;BME280;3928;42.626;23.382;2023-05-09T09:34:12;94521.88;;;17.11;70.76
7768;BME280;3928;42.626;23.382;2023-05-09T09:36:44;94518.38;;;17.12;71.17
7768;BME280;3928;42.626;23.382;2023-05-09T09:39:13;94521.31;;;17.03;70.91
7768;BME280;3928;42.626;23.382;2023-05-09T09:41:40;94505.97;;;16.98;71.58
7768;BME280;3928;42.626;23.382;2023-05-09T09:44:11;94514.78;;;16.92;71.34
7768;BME280;3928;42.626;23.382;2023-05-09T09:46:43;94518.28;;;16.91;71.94
7768;BME280;3928;42.626;23.382;2023-05-09T09:49:10;94514.22;;;17.08;71.59
7768;BME280;3928;42.626;23.382;2023-05-09T09:51:38;94520.41;;;17.04;73.61
7768;BME280;3928;42.626;23.382;2023-05-09T09:54:06;94512.63;;;17.04;73.36
7768;BME280;3928;42.626;23.382;2023-05-09T09:56:40;94519.84;;;17.19;73.76
7768;BME280;3928;42.626;23.382;2023-05-09T09:59:10;94517.78;;;17.27;72.92
7768;BME280;3928;42.626;23.382;2023-05-09T10:01:59;94526.31;;;17.31;73.38
7768;BME280;3928;42.626;23.382;2023-05-09T10:04:29;94520.03;;;17.58;72.94
7768;BME280;3928;42.626;23.382;2023-05-09T10:06:57;94516.31;;;17.64;72.85
7768;BME280;3928;42.626;23.382;2023-05-09T10:09:26;94515.75;;;17.79;72.88
7768;BME280;3928;42.626;23.382;2023-05-09T10:11:54;94509.50;;;17.83;71.73
7768;BME280;3928;42.626;23.382;2023-05-09T10:14:24;94509.88;;;17.74;70.90
7768;BME280;3928;42.626;23.382;2023-05-09T10:16:54;94509.00;;;17.53;71.97
7768;BME280;3928;42.626;23.382;2023-05-09T10:19:21;94494.56;;;17.24;73.58
7768;BME280;3928;42.626;23.382;2023-05-09T10:21:51;94505.44;;;17.34;73.69
7768;BME280;3928;42.626;23.382;2023-05-09T10:24:23;94509.91;;;17.30;74.02
7768;BME280;3928;42.626;23.382;2023-05-09T10:26:55;94511.34;;;17.37;73.69
7768;BME280;3928;42.626;23.382;2023-05-09T10:29:28;94511.03;;;17.23;74.81
7768;BME280;3928;42.626;23.382;2023-05-09T10:31:58;94494.81;;;17.18;74.53
7768;BME280;3928;42.626;23.382;2023-05-09T10:34:30;94492.72;;;17.06;74.68
7768;BME280;3928;42.626;23.382;2023-05-09T10:37:00;94511.31;;;16.93;75.64
7768;BME280;3928;42.626;23.382;2023-05-09T10:39:28;94518.75;;;16.79;75.95
7768;BME280;3928;42.626;23.382;2023-05-09T10:41:57;94509.19;;;16.81;76.28
7768;BME280;3928;42.626;23.382;2023-05-09T10:44:26;94511.03;;;16.78;77.28
7768;BME280;3928;42.626;23.382;2023-05-09T10:46:54;94514.78;;;16.71;77.62
7768;BME280;3928;42.626;23.382;2023-05-09T10:49:22;94509.63;;;16.69;77.75
7768;BME280;3928;42.626;23.382;2023-05-09T10:51:49;94501.47;;;16.55;78.11
7768;BME280;3928;42.626;23.382;2023-05-09T10:54:26;94520.59;;;16.52;77.90
7768;BME280;3928;42.626;23.382;2023-05-09T10:56:54;94466.41;;;16.23;77.93
7768;BME280;3928;42.626;23.382;2023-05-09T10:59:34;94511.28;;;16.23;78.17
7768;BME280;3928;42.626;23.382;2023-05-09T11:02:02;94516.56;;;16.44;77.60
7768;BME280;3928;42.626;23.382;2023-05-09T11:04:30;94510.66;;;16.40;76.84
7768;BME280;3928;42.626;23.382;2023-05-09T11:06:58;94509.16;;;16.58;76.40
7768;BME280;3928;42.626;23.382;2023-05-09T11:09:27;94503.59;;;16.69;76.62
7768;BME280;3928;42.626;23.382;2023-05-09T11:11:56;94506.94;;;16.72;75.54
7768;BME280;3928;42.626;23.382;2023-05-09T11:14:31;94508.09;;;16.63;76.17
7768;BME280;3928;42.626;23.382;2023-05-09T11:17:03;94507.91;;;16.70;75.60
7768;BME280;3928;42.626;23.382;2023-05-09T11:19:57;94511.41;;;16.67;76.28
7768;BME280;3928;42.626;23.382;2023-05-09T11:22:25;94504.72;;;16.85;75.22
7768;BME280;3928;42.626;23.382;2023-05-09T11:24:59;94499.16;;;16.95;75.18
7768;BME280;3928;42.626;23.382;2023-05-09T11:27:36;94509.94;;;17.07;73.83
7768;BME280;3928;42.626;23.382;2023-05-09T11:30:05;94501.75;;;17.17;73.50
7768;BME280;3928;42.626;23.382;2023-05-09T11:32:40;94495.03;;;17.12;72.70
7768;BME280;3928;42.626;23.382;2023-05-09T11:35:08;94482.00;;;17.13;72.48
7768;BME280;3928;42.626;23.382;2023-05-09T11:37:43;94508.66;;;17.39;71.97
7768;BME280;3928;42.626;23.382;2023-05-09T11:40:12;94502.53;;;17.19;72.18
7768;BME280;3928;42.626;23.382;2023-05-09T11:42:41;94487.19;;;16.91;72.59
7768;BME280;3928;42.626;23.382;2023-05-09T11:45:11;94505.75;;;17.03;73.23
7768;BME280;3928;42.626;23.382;2023-05-09T11:47:40;94510.56;;;16.90;73.05
7768;BME280;3928;42.626;23.382;2023-05-09T11:50:08;94504.69;;;16.86;73.52
7768;BME280;3928;42.626;23.382;2023-05-09T11:52:36;94504.56;;;16.89;74.03
7768;BME280;3928;42.626;23.382;2023-05-09T11:55:05;94511.00;;;17.01;72.96
7768;BME280;3928;42.626;23.382;2023-05-09T11:57:34;94509.75;;;17.11;73.09
7768;BME280;3928;42.626;23.382;2023-05-09T12:00:01;94436.72;;;16.55;72.18
7768;BME280;3928;42.626;23.382;2023-05-09T12:02:29;94504.50;;;17.13;71.48
7768;BME280;3928;42.626;23.382;2023-05-09T12:05:05;94492.22;;;16.49;73.64
7768;BME280;3928;42.626;23.382;2023-05-09T12:07:34;94505.84;;;16.78;73.13
7768;BME280;3928;42.626;23.382;2023-05-09T12:10:01;94504.69;;;16.86;72.47
7768;BME280;3928;42.626;23.382;2023-05-09T12:12:32;94507.03;;;16.69;73.64
7768;BME280;3928;42.626;23.382;2023-05-09T12:15:01;94511.69;;;16.59;74.33
7768;BME280;3928;42.626;23.382;2023-05-09T12:17:28;94491.81;;;16.60;74.87
7768;BME280;3928;42.626;23.382;2023-05-09T12:19:58;94504.50;;;16.67;74.97
7768;BME280;3928;42.626;23.382;2023-05-09T12:22:27;94504.84;;;16.58;73.67
7768;BME280;3928;42.626;23.382;2023-05-09T12:24:54;94504.63;;;16.40;73.84
7768;BME280;3928;42.626;23.382;2023-05-09T12:27:22;94500.81;;;16.26;74.93
7768;BME280;3928;42.626;23.382;2023-05-09T12:29:51;94507.00;;;16.22;75.28
7768;BME280;3928;42.626;23.382;2023-05-09T12:32:18;94498.69;;;16.13;75.79
7768;BME280;3928;42.626;23.382;2023-05-09T12:34:44;94500.22;;;16.18;76.18
7768;BME280;3928;42.626;23.382;2023-05-09T12:37:14;94504.25;;;16.02;76.73
7768;BME280;3928;42.626;23.382;2023-05-09T12:39:44;94499.13;;;15.75;77.92
7768;BME280;3928;42.626;23.382;2023-05-09T12:42:11;94445.97;;;15.39;78.60
7768;BME280;3928;42.626;23.382;2023-05-09T12:44:38;94498.94;;;15.80;77.97
7768;BME280;3928;42.626;23.382;2023-05-09T12:47:06;94512.22;;;15.96;77.17
7768;BME280;3928;42.626;23.382;2023-05-09T12:49:35;94506.38;;;15.64;78.28
7768;BME280;3928;42.626;23.382;2023-05-09T12:52:02;94510.22;;;15.79;77.53
7768;BME280;3928;42.626;23.382;2023-05-09T12:54:30;94496.72;;;15.69;78.43
7768;BME280;3928;42.626;23.382;2023-05-09T12:56:57;94499.19;;;15.72;78.94
7768;BME280;3928;42.626;23.382;2023-05-09T12:59:26;94502.00;;;15.66;79.48
7768;BME280;3928;42.626;23.382;2023-05-09T13:01:54;94507.19;;;15.66;79.31
7768;BME280;3928;42.626;23.382;2023-05-09T13:04:22;94497.72;;;15.65;79.48
7768;BME280;3928;42.626;23.382;2023-05-09T13:06:50;94494.94;;;15.71;79.92
7768;BME280;3928;42.626;23.382;2023-05-09T13:09:17;94497.63;;;15.68;80.78
7768;BME280;3928;42.626;23.382;2023-05-09T13:11:45;94495.78;;;15.72;80.79
7768;BME280;3928;42.626;23.382;2023-05-09T13:14:13;94492.16;;;15.77;81.03
7768;BME280;3928;42.626;23.382;2023-05-09T13:16:40;94479.09;;;15.54;80.98